sensor_id;sensor_type;location;lat;lon;timestamp;temperature;humidity
26909;DHT22;14477;51.038;4.588;2022-10-17T00:01:32;17.00;99.90
26909;DHT22;14477;51.038;4.588;2022-10-17T00:03:58;17.00;99.90
26909;DHT22;14477;51.038;4.588;2022-10-17T00:06:23;17.00;99.90
26909;DHT22;14477;51.038;4.588;2022-10-17T00:08:49;17.00;99.90
26909;DHT22;14477;51.038;4.588;2022-10-17T00:11:18;16.90;99.90
26909;DHT22;14477;51.038;4.588;2022-10-17T00:13:45;16.90;99.90
26909;DHT22;14477;51.038;4.588;2022-10-17T00:16:10;16.90;99.90
26909;DHT22;14477;51.038;4.588;2022-10-17T00:18:36;16.90;99.90
26909;DHT22;14477;51.038;4.588;2022-10-17T00:21:02;16.90;99.90
26909;DHT22;14477;51.038;4.588;2022-10-17T00:23:28;16.90;99.90
26909;DHT22;14477;51.038;4.588;2022-10-17T00:26:02;16.90;99.90
26909;DHT22;14477;51.038;4.588;2022-10-17T00:28:29;16.80;99.90
26909;DHT22;14477;51.038;4.588;2022-10-17T00:30:59;16.80;99.90
26909;DHT22;14477;51.038;4.588;2022-10-17T00:33:26;16.80;99.90
26909;DHT22;14477;51.038;4.588;2022-10-17T00:36:13;16.80;99.90
26909;DHT22;14477;51.038;4.588;2022-10-17T00:38:40;16.80;99.90
26909;DHT22;14477;51.038;4.588;2022-10-17T00:41:08;16.80;99.90
26909;DHT22;14477;51.038;4.588;2022-10-17T00:44:03;16.80;99.90
26909;DHT22;14477;51.038;4.588;2022-10-17T00:46:34;16.70;99.90
26909;DHT22;14477;51.038;4.588;2022-10-17T00:49:03;16.70;99.90
26909;DHT22;14477;51.038;4.588;2022-10-17T00:51:44;16.70;99.90
26909;DHT22;14477;51.038;4.588;2022-10-17T00:54:13;16.70;99.90
26909;DHT22;14477;51.038;4.588;2022-10-17T00:56:40;16.70;99.90
26909;DHT22;14477;51.038;4.588;2022-10-17T00:59:08;16.80;99.90
26909;DHT22;14477;51.038;4.588;2022-10-17T01:01:35;16.80;99.90
26909;DHT22;14477;51.038;4.588;2022-10-17T01:04:01;16.70;99.90
26909;DHT22;14477;51.038;4.588;2022-10-17T01:06:26;16.70;99.90
26909;DHT22;14477;51.038;4.588;2022-10-17T01:08:52;16.80;99.90
26909;DHT22;14477;51.038;4.588;2022-10-17T01:12:15;16.80;99.90
26909;DHT22;14477;51.038;4.588;2022-10-17T01:33:35;16.70;99.90
26909;DHT22;14477;51.038;4.588;2022-10-17T01:36:24;16.70;99.90
26909;DHT22;14477;51.038;4.588;2022-10-17T01:39:05;16.70;99.90
26909;DHT22;14477;51.038;4.588;2022-10-17T01:42:07;16.60;99.90
26909;DHT22;14477;51.038;4.588;2022-10-17T01:44:33;16.70;99.90
26909;DHT22;14477;51.038;4.588;2022-10-17T01:47:09;16.60;99.90
26909;DHT22;14477;51.038;4.588;2022-10-17T01:49:36;16.70;99.90
26909;DHT22;14477;51.038;4.588;2022-10-17T01:52:08;16.60;99.90
26909;DHT22;14477;51.038;4.588;2022-10-17T01:54:43;16.60;99.90
26909;DHT22;14477;51.038;4.588;2022-10-17T01:57:31;16.60;99.90
26909;DHT22;14477;51.038;4.588;2022-10-17T01:59:59;16.60;99.90
26909;DHT22;14477;51.038;4.588;2022-10-17T02:02:26;16.60;99.90
26909;DHT22;14477;51.038;4.588;2022-10-17T02:04:54;16.60;99.90
26909;DHT22;14477;51.038;4.588;2022-10-17T02:07:21;16.60;99.90
26909;DHT22;14477;51.038;4.588;2022-10-17T02:09:47;16.50;99.90
26909;DHT22;14477;51.038;4.588;2022-10-17T02:18:13;16.50;99.90
26909;DHT22;14477;51.038;4.588;2022-10-17T02:20:48;16.50;99.90
26909;DHT22;14477;51.038;4.588;2022-10-17T02:25:44;16.60;99.90
26909;DHT22;14477;51.038;4.588;2022-10-17T02:28:29;16.50;99.90
26909;DHT22;14477;51.038;4.588;2022-10-17T02:31:05;16.50;99.90
26909;DHT22;14477;51.038;4.588;2022-10-17T02:33:43;16.50;99.90
26909;DHT22;14477;51.038;4.588;2022-10-17T02:36:14;16.60;99.90
26909;DHT22;14477;51.038;4.588;2022-10-17T02:38:44;16.60;99.90
26909;DHT22;14477;51.038;4.588;2022-10-17T02:41:13;16.70;99.90
26909;DHT22;14477;51.038;4.588;2022-10-17T02:43:40;16.70;99.90
26909;DHT22;14477;51.038;4.588;2022-10-17T02:46:11;16.70;99.90
26909;DHT22;14477;51.038;4.588;2022-10-17T02:48:49;16.70;99.90
26909;DHT22;14477;51.038;4.588;2022-10-17T02:56:30;16.90;99.90
26909;DHT22;14477;51.038;4.588;2022-10-17T02:58:59;17.00;99.90
26909;DHT22;14477;51.038;4.588;2022-10-17T03:01:26;17.00;99.90
26909;DHT22;14477;51.038;4.588;2022-10-17T03:04:11;17.10;99.90
26909;DHT22;14477;51.038;4.588;2022-10-17T03:06:38;17.20;99.90
26909;DHT22;14477;51.038;4.588;2022-10-17T03:09:06;17.20;99.90
26909;DHT22;14477;51.038;4.588;2022-10-17T03:11:32;17.30;99.90
26909;DHT22;14477;51.038;4.588;2022-10-17T03:13:57;17.40;99.90
26909;DHT22;14477;51.038;4.588;2022-10-17T03:16:23;17.50;99.90
26909;DHT22;14477;51.038;4.588;2022-10-17T03:18:49;17.50;99.90
26909;DHT22;14477;51.038;4.588;2022-10-17T03:21:15;17.60;99.90
26909;DHT22;14477;51.038;4.588;2022-10-17T03:23:40;17.70;99.90
26909;DHT22;14477;51.038;4.588;2022-10-17T03:26:06;17.80;99.90
26909;DHT22;14477;51.038;4.588;2022-10-17T03:28:33;17.90;99.90
26909;DHT22;14477;51.038;4.588;2022-10-17T03:30:58;17.90;99.90
26909;DHT22;14477;51.038;4.588;2022-10-17T03:33:24;18.00;99.90
26909;DHT22;14477;51.038;4.588;2022-10-17T03:35:49;18.10;99.90
26909;DHT22;14477;51.038;4.588;2022-10-17T03:38:16;18.20;99.90
26909;DHT22;14477;51.038;4.588;2022-10-17T03:40:43;18.30;99.90
26909;DHT22;14477;51.038;4.588;2022-10-17T03:43:09;18.30;99.90
26909;DHT22;14477;51.038;4.588;2022-10-17T03:45:36;18.40;99.90
26909;DHT22;14477;51.038;4.588;2022-10-17T03:48:01;18.40;99.90
26909;DHT22;14477;51.038;4.588;2022-10-17T03:50:27;18.50;99.90
26909;DHT22;14477;51.038;4.588;2022-10-17T03:52:53;18.50;99.90
26909;DHT22;14477;51.038;4.588;2022-10-17T03:55:18;18.50;99.90
26909;DHT22;14477;51.038;4.588;2022-10-17T03:57:44;18.60;99.90
26909;DHT22;14477;51.038;4.588;2022-10-17T04:00:10;18.60;99.90
26909;DHT22;14477;51.038;4.588;2022-10-17T04:02:36;18.70;99.90
26909;DHT22;14477;51.038;4.588;2022-10-17T04:05:01;18.70;99.90
26909;DHT22;14477;51.038;4.588;2022-10-17T04:07:27;18.70;99.90
26909;DHT22;14477;51.038;4.588;2022-10-17T04:09:52;18.70;99.90
26909;DHT22;14477;51.038;4.588;2022-10-17T04:12:18;18.80;99.90
26909;DHT22;14477;51.038;4.588;2022-10-17T04:14:44;18.80;99.90
26909;DHT22;14477;51.038;4.588;2022-10-17T04:17:09;18.80;99.90
26909;DHT22;14477;51.038;4.588;2022-10-17T04:19:35;18.80;99.90
26909;DHT22;14477;51.038;4.588;2022-10-17T04:22:00;18.80;99.90
26909;DHT22;14477;51.038;4.588;2022-10-17T04:24:28;18.90;99.90
26909;DHT22;14477;51.038;4.588;2022-10-17T04:26:54;18.90;99.90
26909;DHT22;14477;51.038;4.588;2022-10-17T04:29:20;18.90;99.90
26909;DHT22;14477;51.038;4.588;2022-10-17T04:31:46;18.90;99.90
26909;DHT22;14477;51.038;4.588;2022-10-17T04:34:11;18.90;99.90
26909;DHT22;14477;51.038;4.588;2022-10-17T04:36:39;18.90;99.90
26909;DHT22;14477;51.038;4.588;2022-10-17T04:39:04;18.90;99.90
26909;DHT22;14477;51.038;4.588;2022-10-17T04:41:30;18.90;99.90
26909;DHT22;14477;51.038;4.588;2022-10-17T04:43:56;19.00;99.90
26909;DHT22;14477;51.038;4.588;2022-10-17T04:46:22;19.00;99.90
26909;DHT22;14477;51.038;4.588;2022-10-17T04:48:48;19.00;99.90
26909;DHT22;14477;51.038;4.588;2022-10-17T04:51:16;19.00;99.90
26909;DHT22;14477;51.038;4.588;2022-10-17T04:53:43;19.00;99.90
26909;DHT22;14477;51.038;4.588;2022-10-17T04:56:14;19.00;99.90
26909;DHT22;14477;51.038;4.588;2022-10-17T04:58:40;19.00;99.90
26909;DHT22;14477;51.038;4.588;2022-10-17T05:01:08;19.00;99.90
26909;DHT22;14477;51.038;4.588;2022-10-17T05:03:34;19.00;99.90
26909;DHT22;14477;51.038;4.588;2022-10-17T05:06:08;19.00;99.90
26909;DHT22;14477;51.038;4.588;2022-10-17T05:08:34;19.00;99.90
26909;DHT22;14477;51.038;4.588;2022-10-17T05:11:00;19.00;99.90
26909;DHT22;14477;51.038;4.588;2022-10-17T05:13:26;18.90;99.90
26909;DHT22;14477;51.038;4.588;2022-10-17T05:15:52;18.90;99.90
26909;DHT22;14477;51.038;4.588;2022-10-17T05:18:17;18.90;99.90
26909;DHT22;14477;51.038;4.588;2022-10-17T05:20:43;18.90;99.90
26909;DHT22;14477;51.038;4.588;2022-10-17T05:23:09;18.90;99.90
26909;DHT22;14477;51.038;4.588;2022-10-17T05:25:34;18.90;99.90
26909;DHT22;14477;51.038;4.588;2022-10-17T05:28:00;18.90;99.90
26909;DHT22;14477;51.038;4.588;2022-10-17T05:30:26;18.90;99.90
26909;DHT22;14477;51.038;4.588;2022-10-17T05:32:52;18.90;99.90
26909;DHT22;14477;51.038;4.588;2022-10-17T05:35:19;18.90;99.90
26909;DHT22;14477;51.038;4.588;2022-10-17T05:37:45;18.80;99.90
26909;DHT22;14477;51.038;4.588;2022-10-17T05:40:11;18.90;99.90
26909;DHT22;14477;51.038;4.588;2022-10-17T05:42:36;18.90;99.90
26909;DHT22;14477;51.038;4.588;2022-10-17T05:45:02;18.90;99.90
26909;DHT22;14477;51.038;4.588;2022-10-17T05:47:28;18.90;99.90
26909;DHT22;14477;51.038;4.588;2022-10-17T05:49:54;18.90;99.90
26909;DHT22;14477;51.038;4.588;2022-10-17T05:52:19;18.90;99.90
26909;DHT22;14477;51.038;4.588;2022-10-17T05:54:45;18.90;99.90
26909;DHT22;14477;51.038;4.588;2022-10-17T05:57:10;18.90;99.90
26909;DHT22;14477;51.038;4.588;2022-10-17T05:59:36;18.90;99.90
26909;DHT22;14477;51.038;4.588;2022-10-17T06:02:02;18.90;99.90
26909;DHT22;14477;51.038;4.588;2022-10-17T06:04:27;18.90;99.90
26909;DHT22;14477;51.038;4.588;2022-10-17T06:06:53;19.00;99.90
26909;DHT22;14477;51.038;4.588;2022-10-17T06:09:21;18.90;99.90
26909;DHT22;14477;51.038;4.588;2022-10-17T06:11:47;18.90;99.90
26909;DHT22;14477;51.038;4.588;2022-10-17T06:14:12;19.00;99.90
26909;DHT22;14477;51.038;4.588;2022-10-17T06:16:38;19.00;99.90
26909;DHT22;14477;51.038;4.588;2022-10-17T06:19:04;19.00;99.90
26909;DHT22;14477;51.038;4.588;2022-10-17T06:21:29;19.00;99.90
26909;DHT22;14477;51.038;4.588;2022-10-17T06:23:58;19.00;99.90
26909;DHT22;14477;51.038;4.588;2022-10-17T06:26:24;19.00;99.90
26909;DHT22;14477;51.038;4.588;2022-10-17T06:28:50;19.00;99.90
26909;DHT22;14477;51.038;4.588;2022-10-17T06:31:16;19.00;99.90
26909;DHT22;14477;51.038;4.588;2022-10-17T06:33:42;19.10;99.90
26909;DHT22;14477;51.038;4.588;2022-10-17T06:36:11;19.10;99.90
26909;DHT22;14477;51.038;4.588;2022-10-17T06:38:37;19.10;99.90
26909;DHT22;14477;51.038;4.588;2022-10-17T06:41:11;19.10;99.90
26909;DHT22;14477;51.038;4.588;2022-10-17T06:43:39;19.20;99.90
26909;DHT22;14477;51.038;4.588;2022-10-17T06:46:05;19.20;99.90
26909;DHT22;14477;51.038;4.588;2022-10-17T06:48:31;19.20;99.90
26909;DHT22;14477;51.038;4.588;2022-10-17T06:50:58;19.20;99.90
26909;DHT22;14477;51.038;4.588;2022-10-17T06:53:27;19.20;99.90
26909;DHT22;14477;51.038;4.588;2022-10-17T06:55:53;19.20;99.90
26909;DHT22;14477;51.038;4.588;2022-10-17T06:58:20;19.20;99.90
26909;DHT22;14477;51.038;4.588;2022-10-17T07:00:45;19.20;99.90
26909;DHT22;14477;51.038;4.588;2022-10-17T07:03:11;19.30;99.90
26909;DHT22;14477;51.038;4.588;2022-10-17T07:05:37;19.30;99.90
26909;DHT22;14477;51.038;4.588;2022-10-17T07:08:04;19.30;99.90
26909;DHT22;14477;51.038;4.588;2022-10-17T07:10:29;19.40;99.90
26909;DHT22;14477;51.038;4.588;2022-10-17T07:12:55;19.40;99.90
26909;DHT22;14477;51.038;4.588;2022-10-17T07:15:20;19.40;99.90
26909;DHT22;14477;51.038;4.588;2022-10-17T07:17:49;19.50;99.90
26909;DHT22;14477;51.038;4.588;2022-10-17T07:20:15;19.50;99.90
26909;DHT22;14477;51.038;4.588;2022-10-17T07:22:41;19.60;99.90
26909;DHT22;14477;51.038;4.588;2022-10-17T07:25:07;19.60;99.90
26909;DHT22;14477;51.038;4.588;2022-10-17T07:27:33;19.60;99.90
26909;DHT22;14477;51.038;4.588;2022-10-17T07:29:58;19.70;99.90
26909;DHT22;14477;51.038;4.588;2022-10-17T07:32:24;19.70;99.90
26909;DHT22;14477;51.038;4.588;2022-10-17T07:34:50;19.80;99.90
26909;DHT22;14477;51.038;4.588;2022-10-17T07:37:15;19.80;99.90
26909;DHT22;14477;51.038;4.588;2022-10-17T07:39:41;19.80;99.90
26909;DHT22;14477;51.038;4.588;2022-10-17T07:42:06;19.90;99.90
26909;DHT22;14477;51.038;4.588;2022-10-17T07:44:32;19.80;99.90
26909;DHT22;14477;51.038;4.588;2022-10-17T07:46:58;19.90;99.90
26909;DHT22;14477;51.038;4.588;2022-10-17T07:49:23;19.80;99.90
26909;DHT22;14477;51.038;4.588;2022-10-17T07:51:49;19.80;99.90
26909;DHT22;14477;51.038;4.588;2022-10-17T07:54:15;19.80;99.90
26909;DHT22;14477;51.038;4.588;2022-10-17T07:56:40;19.80;99.90
26909;DHT22;14477;51.038;4.588;2022-10-17T07:59:06;19.80;99.90
26909;DHT22;14477;51.038;4.588;2022-10-17T08:01:32;19.70;99.90
26909;DHT22;14477;51.038;4.588;2022-10-17T08:03:57;19.70;99.90
26909;DHT22;14477;51.038;4.588;2022-10-17T08:06:23;19.60;99.90
26909;DHT22;14477;51.038;4.588;2022-10-17T08:08:48;19.60;99.90
26909;DHT22;14477;51.038;4.588;2022-10-17T08:11:14;19.60;99.90
26909;DHT22;14477;51.038;4.588;2022-10-17T08:13:40;19.50;99.90
26909;DHT22;14477;51.038;4.588;2022-10-17T08:16:08;19.50;99.90
26909;DHT22;14477;51.038;4.588;2022-10-17T08:18:35;19.50;99.90
26909;DHT22;14477;51.038;4.588;2022-10-17T08:21:02;19.40;99.90
26909;DHT22;14477;51.038;4.588;2022-10-17T08:23:31;19.40;99.90
26909;DHT22;14477;51.038;4.588;2022-10-17T08:26:00;19.40;99.90
26909;DHT22;14477;51.038;4.588;2022-10-17T08:28:27;19.30;99.90
26909;DHT22;14477;51.038;4.588;2022-10-17T08:31:00;19.30;99.90
26909;DHT22;14477;51.038;4.588;2022-10-17T08:33:26;19.30;99.90
26909;DHT22;14477;51.038;4.588;2022-10-17T08:35:52;19.30;99.90
26909;DHT22;14477;51.038;4.588;2022-10-17T08:38:17;19.20;99.90
26909;DHT22;14477;51.038;4.588;2022-10-17T08:40:43;19.20;99.90
26909;DHT22;14477;51.038;4.588;2022-10-17T08:45:56;19.10;99.90
26909;DHT22;14477;51.038;4.588;2022-10-17T08:48:26;19.10;99.90
26909;DHT22;14477;51.038;4.588;2022-10-17T08:51:02;19.00;99.90
26909;DHT22;14477;51.038;4.588;2022-10-17T08:56:32;19.00;99.90
26909;DHT22;14477;51.038;4.588;2022-10-17T08:58:58;19.10;99.90
26909;DHT22;14477;51.038;4.588;2022-10-17T09:01:33;19.10;99.90
26909;DHT22;14477;51.038;4.588;2022-10-17T09:04:33;19.10;99.90
26909;DHT22;14477;51.038;4.588;2022-10-17T09:17:57;19.20;99.90
26909;DHT22;14477;51.038;4.588;2022-10-17T09:20:31;19.20;99.90
26909;DHT22;14477;51.038;4.588;2022-10-17T09:23:01;19.20;99.90
26909;DHT22;14477;51.038;4.588;2022-10-17T09:25:32;19.20;99.90
26909;DHT22;14477;51.038;4.588;2022-10-17T09:28:16;19.20;99.90
26909;DHT22;14477;51.038;4.588;2022-10-17T09:30:50;19.20;99.90
26909;DHT22;14477;51.038;4.588;2022-10-17T09:33:31;19.20;99.90
26909;DHT22;14477;51.038;4.588;2022-10-17T09:35:58;19.20;99.90
26909;DHT22;14477;51.038;4.588;2022-10-17T09:38:29;19.20;99.90
26909;DHT22;14477;51.038;4.588;2022-10-17T09:41:00;19.20;99.90
26909;DHT22;14477;51.038;4.588;2022-10-17T09:43:26;19.20;99.90
26909;DHT22;14477;51.038;4.588;2022-10-17T09:48:48;19.20;99.90
26909;DHT22;14477;51.038;4.588;2022-10-17T09:51:15;19.20;99.90
26909;DHT22;14477;51.038;4.588;2022-10-17T09:53:50;19.30;99.90
26909;DHT22;14477;51.038;4.588;2022-10-17T09:56:17;19.30;99.90
26909;DHT22;14477;51.038;4.588;2022-10-17T09:58:49;19.30;99.90
26909;DHT22;14477;51.038;4.588;2022-10-17T10:01:29;19.30;99.90
26909;DHT22;14477;51.038;4.588;2022-10-17T10:04:13;19.40;99.90
26909;DHT22;14477;51.038;4.588;2022-10-17T10:06:40;19.40;99.90
26909;DHT22;14477;51.038;4.588;2022-10-17T10:09:20;19.40;99.90
26909;DHT22;14477;51.038;4.588;2022-10-17T10:11:57;19.50;99.90
26909;DHT22;14477;51.038;4.588;2022-10-17T10:14:34;19.50;99.90
26909;DHT22;14477;51.038;4.588;2022-10-17T10:17:02;19.50;99.90
26909;DHT22;14477;51.038;4.588;2022-10-17T10:19:33;19.50;99.90
26909;DHT22;14477;51.038;4.588;2022-10-17T10:22:20;19.50;99.90
26909;DHT22;14477;51.038;4.588;2022-10-17T10:25:14;19.60;99.90
26909;DHT22;14477;51.038;4.588;2022-10-17T10:27:43;19.60;99.90
26909;DHT22;14477;51.038;4.588;2022-10-17T10:30:23;19.60;99.90
26909;DHT22;14477;51.038;4.588;2022-10-17T10:32:49;19.60;99.90
26909;DHT22;14477;51.038;4.588;2022-10-17T10:35:28;19.60;99.90
26909;DHT22;14477;51.038;4.588;2022-10-17T10:37:57;19.60;99.90
26909;DHT22;14477;51.038;4.588;2022-10-17T10:40:43;19.60;99.90
26909;DHT22;14477;51.038;4.588;2022-10-17T10:46:15;19.70;99.90
26909;DHT22;14477;51.038;4.588;2022-10-17T10:48:50;19.70;99.90
26909;DHT22;14477;51.038;4.588;2022-10-17T10:51:20;19.80;99.90
26909;DHT22;14477;51.038;4.588;2022-10-17T10:54:18;19.80;99.90
26909;DHT22;14477;51.038;4.588;2022-10-17T10:56:57;19.80;99.90
26909;DHT22;14477;51.038;4.588;2022-10-17T11:02:14;19.90;99.90
26909;DHT22;14477;51.038;4.588;2022-10-17T11:05:07;19.90;99.90
26909;DHT22;14477;51.038;4.588;2022-10-17T11:13:22;19.90;99.90
26909;DHT22;14477;51.038;4.588;2022-10-17T11:16:40;19.90;99.90
26909;DHT22;14477;51.038;4.588;2022-10-17T11:26:22;20.00;99.90
26909;DHT22;14477;51.038;4.588;2022-10-17T11:28:55;20.00;99.90
26909;DHT22;14477;51.038;4.588;2022-10-17T11:31:24;20.00;99.90
26909;DHT22;14477;51.038;4.588;2022-10-17T11:33:59;20.00;99.90
26909;DHT22;14477;51.038;4.588;2022-10-17T11:36:29;20.00;99.90
26909;DHT22;14477;51.038;4.588;2022-10-17T11:39:09;20.00;99.90
26909;DHT22;14477;51.038;4.588;2022-10-17T11:44:36;20.00;99.90
26909;DHT22;14477;51.038;4.588;2022-10-17T11:49:51;20.10;99.90
26909;DHT22;14477;51.038;4.588;2022-10-17T11:55:24;20.00;99.90
26909;DHT22;14477;51.038;4.588;2022-10-17T12:09:09;20.10;99.90
26909;DHT22;14477;51.038;4.588;2022-10-17T12:11:54;20.20;99.90
26909;DHT22;14477;51.038;4.588;2022-10-17T12:14:44;20.20;99.90
26909;DHT22;14477;51.038;4.588;2022-10-17T12:17:32;20.30;99.90
26909;DHT22;14477;51.038;4.588;2022-10-17T12:20:31;20.30;99.90
26909;DHT22;14477;51.038;4.588;2022-10-17T12:23:03;20.40;99.90
26909;DHT22;14477;51.038;4.588;2022-10-17T12:25:31;20.40;99.90
26909;DHT22;14477;51.038;4.588;2022-10-17T12:30:49;20.40;99.90
26909;DHT22;14477;51.038;4.588;2022-10-17T12:49:48;20.40;99.90
26909;DHT22;14477;51.038;4.588;2022-10-17T12:57:47;20.40;99.90
26909;DHT22;14477;51.038;4.588;2022-10-17T13:00:22;20.40;99.90
26909;DHT22;14477;51.038;4.588;2022-10-17T13:02:51;20.40;99.90
26909;DHT22;14477;51.038;4.588;2022-10-17T13:05:30;20.30;99.90
26909;DHT22;14477;51.038;4.588;2022-10-17T13:07:59;20.30;99.90
26909;DHT22;14477;51.038;4.588;2022-10-17T13:10:28;20.30;99.90
26909;DHT22;14477;51.038;4.588;2022-10-17T13:15:32;20.30;99.90
26909;DHT22;14477;51.038;4.588;2022-10-17T13:17:59;20.30;99.90
26909;DHT22;14477;51.038;4.588;2022-10-17T13:20:27;20.30;99.90
26909;DHT22;14477;51.038;4.588;2022-10-17T13:22:54;20.40;99.90
26909;DHT22;14477;51.038;4.588;2022-10-17T13:25:21;20.40;99.90
26909;DHT22;14477;51.038;4.588;2022-10-17T13:27:48;20.40;99.90
26909;DHT22;14477;51.038;4.588;2022-10-17T13:30:29;20.40;99.90
26909;DHT22;14477;51.038;4.588;2022-10-17T13:32:55;20.50;99.90
26909;DHT22;14477;51.038;4.588;2022-10-17T13:35:30;20.50;99.90
26909;DHT22;14477;51.038;4.588;2022-10-17T13:37:56;20.50;99.90
26909;DHT22;14477;51.038;4.588;2022-10-17T13:40:26;20.60;99.90
26909;DHT22;14477;51.038;4.588;2022-10-17T13:42:54;20.60;99.90
26909;DHT22;14477;51.038;4.588;2022-10-17T13:45:29;20.60;99.90
26909;DHT22;14477;51.038;4.588;2022-10-17T13:47:59;20.70;99.90
26909;DHT22;14477;51.038;4.588;2022-10-17T13:50:31;20.70;99.90
26909;DHT22;14477;51.038;4.588;2022-10-17T13:53:18;20.80;99.90
26909;DHT22;14477;51.038;4.588;2022-10-17T13:58:23;20.80;99.90
26909;DHT22;14477;51.038;4.588;2022-10-17T14:00:49;20.90;99.90
26909;DHT22;14477;51.038;4.588;2022-10-17T14:03:18;20.90;99.90
26909;DHT22;14477;51.038;4.588;2022-10-17T14:06:07;20.90;99.90
26909;DHT22;14477;51.038;4.588;2022-10-17T14:08:37;21.00;99.90
26909;DHT22;14477;51.038;4.588;2022-10-17T14:11:13;20.90;99.90
26909;DHT22;14477;51.038;4.588;2022-10-17T14:13:40;20.90;99.90
26909;DHT22;14477;51.038;4.588;2022-10-17T14:16:06;20.90;99.90
26909;DHT22;14477;51.038;4.588;2022-10-17T14:18:35;20.90;99.90
26909;DHT22;14477;51.038;4.588;2022-10-17T14:21:01;20.90;99.90
26909;DHT22;14477;51.038;4.588;2022-10-17T14:23:36;20.90;99.90
26909;DHT22;14477;51.038;4.588;2022-10-17T14:26:07;20.90;99.90
26909;DHT22;14477;51.038;4.588;2022-10-17T14:28:33;20.90;99.90
26909;DHT22;14477;51.038;4.588;2022-10-17T14:31:22;20.90;99.90
26909;DHT22;14477;51.038;4.588;2022-10-17T14:33:51;20.90;99.90
26909;DHT22;14477;51.038;4.588;2022-10-17T14:36:19;20.90;99.90
26909;DHT22;14477;51.038;4.588;2022-10-17T14:38:47;21.00;99.90
26909;DHT22;14477;51.038;4.588;2022-10-17T14:41:24;21.00;99.90
26909;DHT22;14477;51.038;4.588;2022-10-17T14:44:02;21.00;99.90
26909;DHT22;14477;51.038;4.588;2022-10-17T14:46:28;21.00;99.90
26909;DHT22;14477;51.038;4.588;2022-10-17T14:49:01;21.00;99.90
26909;DHT22;14477;51.038;4.588;2022-10-17T14:51:27;21.00;99.90
26909;DHT22;14477;51.038;4.588;2022-10-17T14:54:43;21.00;99.90
26909;DHT22;14477;51.038;4.588;2022-10-17T14:56:51;21.00;99.90
26909;DHT22;14477;51.038;4.588;2022-10-17T14:59:18;21.00;99.90
26909;DHT22;14477;51.038;4.588;2022-10-17T15:01:50;21.00;99.90
26909;DHT22;14477;51.038;4.588;2022-10-17T15:04:16;21.00;99.90
26909;DHT22;14477;51.038;4.588;2022-10-17T15:06:42;21.00;99.90
26909;DHT22;14477;51.038;4.588;2022-10-17T15:09:11;20.90;99.90
26909;DHT22;14477;51.038;4.588;2022-10-17T15:11:37;21.00;99.90
26909;DHT22;14477;51.038;4.588;2022-10-17T15:14:03;20.90;99.90
26909;DHT22;14477;51.038;4.588;2022-10-17T15:16:33;20.90;99.90
26909;DHT22;14477;51.038;4.588;2022-10-17T15:18:59;20.90;99.90
26909;DHT22;14477;51.038;4.588;2022-10-17T15:21:26;20.90;99.90
26909;DHT22;14477;51.038;4.588;2022-10-17T15:23:52;20.90;99.90
26909;DHT22;14477;51.038;4.588;2022-10-17T15:26:24;20.90;99.90
26909;DHT22;14477;51.038;4.588;2022-10-17T15:28:50;20.90;99.90
26909;DHT22;14477;51.038;4.588;2022-10-17T15:31:19;20.80;99.90
26909;DHT22;14477;51.038;4.588;2022-10-17T15:33:45;20.80;99.90
26909;DHT22;14477;51.038;4.588;2022-10-17T15:36:27;20.80;99.90
26909;DHT22;14477;51.038;4.588;2022-10-17T15:38:57;20.80;99.90
26909;DHT22;14477;51.038;4.588;2022-10-17T15:41:25;20.80;99.90
26909;DHT22;14477;51.038;4.588;2022-10-17T15:43:51;20.70;99.90
26909;DHT22;14477;51.038;4.588;2022-10-17T15:46:20;20.70;99.90
26909;DHT22;14477;51.038;4.588;2022-10-17T15:48:47;20.70;99.90
26909;DHT22;14477;51.038;4.588;2022-10-17T15:51:13;20.70;99.90
26909;DHT22;14477;51.038;4.588;2022-10-17T15:53:38;20.70;99.90
26909;DHT22;14477;51.038;4.588;2022-10-17T15:56:05;20.60;99.90
26909;DHT22;14477;51.038;4.588;2022-10-17T15:58:38;20.60;99.90
26909;DHT22;14477;51.038;4.588;2022-10-17T16:01:19;20.60;99.90
26909;DHT22;14477;51.038;4.588;2022-10-17T16:03:45;20.60;99.90
26909;DHT22;14477;51.038;4.588;2022-10-17T16:06:13;20.50;99.90
26909;DHT22;14477;51.038;4.588;2022-10-17T16:08:39;20.50;99.90
26909;DHT22;14477;51.038;4.588;2022-10-17T16:11:04;20.50;99.90
26909;DHT22;14477;51.038;4.588;2022-10-17T16:13:30;20.40;99.90
26909;DHT22;14477;51.038;4.588;2022-10-17T16:15:56;20.40;99.90
26909;DHT22;14477;51.038;4.588;2022-10-17T16:18:22;20.40;99.90
26909;DHT22;14477;51.038;4.588;2022-10-17T16:20:47;20.40;99.90
26909;DHT22;14477;51.038;4.588;2022-10-17T16:23:13;20.30;99.90
26909;DHT22;14477;51.038;4.588;2022-10-17T16:25:39;20.30;99.90
26909;DHT22;14477;51.038;4.588;2022-10-17T16:28:06;20.20;99.90
26909;DHT22;14477;51.038;4.588;2022-10-17T16:30:38;20.20;99.90
26909;DHT22;14477;51.038;4.588;2022-10-17T16:33:07;20.20;99.90
26909;DHT22;14477;51.038;4.588;2022-10-17T16:35:32;20.20;99.90
26909;DHT22;14477;51.038;4.588;2022-10-17T16:37:58;20.10;99.90
26909;DHT22;14477;51.038;4.588;2022-10-17T16:40:24;20.10;99.90
26909;DHT22;14477;51.038;4.588;2022-10-17T16:42:49;20.00;99.90
26909;DHT22;14477;51.038;4.588;2022-10-17T16:45:22;20.00;99.90
26909;DHT22;14477;51.038;4.588;2022-10-17T16:47:48;19.90;99.90
26909;DHT22;14477;51.038;4.588;2022-10-17T16:50:15;19.90;99.90
26909;DHT22;14477;51.038;4.588;2022-10-17T16:52:40;19.90;99.90
26909;DHT22;14477;51.038;4.588;2022-10-17T16:55:06;19.80;99.90
26909;DHT22;14477;51.038;4.588;2022-10-17T16:57:32;19.80;99.90
26909;DHT22;14477;51.038;4.588;2022-10-17T16:59:58;19.80;99.90
26909;DHT22;14477;51.038;4.588;2022-10-17T17:02:24;19.70;99.90
26909;DHT22;14477;51.038;4.588;2022-10-17T17:04:49;19.70;99.90
26909;DHT22;14477;51.038;4.588;2022-10-17T17:07:15;19.70;99.90
26909;DHT22;14477;51.038;4.588;2022-10-17T17:09:43;19.60;99.90
26909;DHT22;14477;51.038;4.588;2022-10-17T17:12:08;19.60;99.90
26909;DHT22;14477;51.038;4.588;2022-10-17T17:14:34;19.60;99.90
26909;DHT22;14477;51.038;4.588;2022-10-17T17:17:00;19.60;99.90
26909;DHT22;14477;51.038;4.588;2022-10-17T17:19:25;19.50;99.90
26909;DHT22;14477;51.038;4.588;2022-10-17T17:21:51;19.50;99.90
26909;DHT22;14477;51.038;4.588;2022-10-17T17:24:18;19.50;99.90
26909;DHT22;14477;51.038;4.588;2022-10-17T17:26:49;19.50;99.90
26909;DHT22;14477;51.038;4.588;2022-10-17T17:29:15;19.40;99.90
26909;DHT22;14477;51.038;4.588;2022-10-17T17:31:41;19.40;99.90
26909;DHT22;14477;51.038;4.588;2022-10-17T17:34:07;19.40;99.90
26909;DHT22;14477;51.038;4.588;2022-10-17T17:36:34;19.30;99.90
26909;DHT22;14477;51.038;4.588;2022-10-17T17:39:03;19.30;99.90
26909;DHT22;14477;51.038;4.588;2022-10-17T17:41:29;19.30;99.90
26909;DHT22;14477;51.038;4.588;2022-10-17T17:43:55;19.20;99.90
26909;DHT22;14477;51.038;4.588;2022-10-17T17:46:21;19.20;99.90